sensor_id;sensor_type;location;lat;lon;timestamp;temperature;humidity
27803;DHT22;15182;48.174;11.562;2024-02-23T00:01:44;13.00;97.10
27803;DHT22;15182;48.174;11.562;2024-02-23T00:04:11;12.90;97.10
27803;DHT22;15182;48.174;11.562;2024-02-23T00:06:39;12.90;97.10
27803;DHT22;15182;48.174;11.562;2024-02-23T00:09:07;12.90;97.00
27803;DHT22;15182;48.174;11.562;2024-02-23T00:11:35;12.80;97.40
27803;DHT22;15182;48.174;11.562;2024-02-23T00:14:07;12.80;97.00
27803;DHT22;15182;48.174;11.562;2024-02-23T00:16:38;12.70;96.90
27803;DHT22;15182;48.174;11.562;2024-02-23T00:19:07;12.70;97.10
27803;DHT22;15182;48.174;11.562;2024-02-23T00:21:36;12.60;97.00
27803;DHT22;15182;48.174;11.562;2024-02-23T00:24:04;12.60;97.00
27803;DHT22;15182;48.174;11.562;2024-02-23T00:26:32;12.60;97.00
27803;DHT22;15182;48.174;11.562;2024-02-23T00:29:00;12.50;96.90
27803;DHT22;15182;48.174;11.562;2024-02-23T00:31:31;12.50;96.90
27803;DHT22;15182;48.174;11.562;2024-02-23T00:33:58;12.50;96.90
27803;DHT22;15182;48.174;11.562;2024-02-23T00:36:26;12.50;96.90
27803;DHT22;15182;48.174;11.562;2024-02-23T00:38:54;12.40;96.80
27803;DHT22;15182;48.174;11.562;2024-02-23T00:41:23;12.40;96.70
27803;DHT22;15182;48.174;11.562;2024-02-23T00:43:50;12.40;96.70
27803;DHT22;15182;48.174;11.562;2024-02-23T00:46:18;12.40;96.60
27803;DHT22;15182;48.174;11.562;2024-02-23T00:48:47;12.30;96.50
27803;DHT22;15182;48.174;11.562;2024-02-23T00:51:15;12.30;96.40
27803;DHT22;15182;48.174;11.562;2024-02-23T00:53:43;12.30;96.30
27803;DHT22;15182;48.174;11.562;2024-02-23T00:56:11;12.30;96.20
27803;DHT22;15182;48.174;11.562;2024-02-23T00:58:39;12.30;96.20
27803;DHT22;15182;48.174;11.562;2024-02-23T01:01:06;12.20;96.20
27803;DHT22;15182;48.174;11.562;2024-02-23T01:03:34;12.20;96.20
27803;DHT22;15182;48.174;11.562;2024-02-23T01:06:04;12.20;96.30
27803;DHT22;15182;48.174;11.562;2024-02-23T01:08:32;12.20;96.30
27803;DHT22;15182;48.174;11.562;2024-02-23T01:10:59;12.20;96.20
27803;DHT22;15182;48.174;11.562;2024-02-23T01:13:27;12.20;96.10
27803;DHT22;15182;48.174;11.562;2024-02-23T01:15:55;12.20;96.10
27803;DHT22;15182;48.174;11.562;2024-02-23T01:18:23;12.20;96.10
27803;DHT22;15182;48.174;11.562;2024-02-23T01:20:50;12.20;96.10
27803;DHT22;15182;48.174;11.562;2024-02-23T01:23:20;12.10;96.00
27803;DHT22;15182;48.174;11.562;2024-02-23T01:25:48;12.10;96.00
27803;DHT22;15182;48.174;11.562;2024-02-23T01:28:15;12.10;96.00
27803;DHT22;15182;48.174;11.562;2024-02-23T01:30:43;12.10;95.90
27803;DHT22;15182;48.174;11.562;2024-02-23T01:33:11;12.10;95.90
27803;DHT22;15182;48.174;11.562;2024-02-23T01:35:39;12.10;95.90
27803;DHT22;15182;48.174;11.562;2024-02-23T01:38:06;12.10;95.90
27803;DHT22;15182;48.174;11.562;2024-02-23T01:40:36;12.10;95.90
27803;DHT22;15182;48.174;11.562;2024-02-23T01:43:03;12.10;96.10
27803;DHT22;15182;48.174;11.562;2024-02-23T01:45:32;12.10;95.70
27803;DHT22;15182;48.174;11.562;2024-02-23T01:48:01;12.10;95.60
27803;DHT22;15182;48.174;11.562;2024-02-23T01:50:29;12.10;95.40
27803;DHT22;15182;48.174;11.562;2024-02-23T01:53:00;12.10;95.30
27803;DHT22;15182;48.174;11.562;2024-02-23T01:55:29;12.00;95.20
27803;DHT22;15182;48.174;11.562;2024-02-23T01:58:00;12.10;95.30
27803;DHT22;15182;48.174;11.562;2024-02-23T02:00:29;12.00;95.10
27803;DHT22;15182;48.174;11.562;2024-02-23T02:02:58;12.00;95.10
27803;DHT22;15182;48.174;11.562;2024-02-23T02:05:26;12.00;95.20
27803;DHT22;15182;48.174;11.562;2024-02-23T02:07:55;12.00;95.20
27803;DHT22;15182;48.174;11.562;2024-02-23T02:10:25;12.00;95.10
27803;DHT22;15182;48.174;11.562;2024-02-23T02:12:53;11.90;94.90
27803;DHT22;15182;48.174;11.562;2024-02-23T02:15:22;11.90;95.30
27803;DHT22;15182;48.174;11.562;2024-02-23T02:17:50;11.90;95.40
27803;DHT22;15182;48.174;11.562;2024-02-23T02:20:18;11.90;95.10
27803;DHT22;15182;48.174;11.562;2024-02-23T02:22:50;11.80;95.10
27803;DHT22;15182;48.174;11.562;2024-02-23T02:25:18;11.80;95.10
27803;DHT22;15182;48.174;11.562;2024-02-23T02:27:46;11.80;95.10
27803;DHT22;15182;48.174;11.562;2024-02-23T02:30:14;11.80;95.20
27803;DHT22;15182;48.174;11.562;2024-02-23T02:32:43;11.80;95.20
27803;DHT22;15182;48.174;11.562;2024-02-23T02:35:11;11.80;95.50
27803;DHT22;15182;48.174;11.562;2024-02-23T02:37:39;11.80;95.10
27803;DHT22;15182;48.174;11.562;2024-02-23T02:40:08;11.80;95.40
27803;DHT22;15182;48.174;11.562;2024-02-23T02:42:36;11.80;94.90
27803;DHT22;15182;48.174;11.562;2024-02-23T02:45:04;11.80;95.30
27803;DHT22;15182;48.174;11.562;2024-02-23T02:47:32;11.80;95.00
27803;DHT22;15182;48.174;11.562;2024-02-23T02:50:04;11.70;95.00
27803;DHT22;15182;48.174;11.562;2024-02-23T02:52:33;11.70;95.10
27803;DHT22;15182;48.174;11.562;2024-02-23T02:55:01;11.70;95.20
27803;DHT22;15182;48.174;11.562;2024-02-23T02:57:29;11.70;95.20
27803;DHT22;15182;48.174;11.562;2024-02-23T02:59:57;11.70;95.20
27803;DHT22;15182;48.174;11.562;2024-02-23T03:02:24;11.70;95.10
27803;DHT22;15182;48.174;11.562;2024-02-23T03:04:52;11.70;95.10
27803;DHT22;15182;48.174;11.562;2024-02-23T03:07:23;11.70;95.00
27803;DHT22;15182;48.174;11.562;2024-02-23T03:09:50;11.70;95.10
27803;DHT22;15182;48.174;11.562;2024-02-23T03:12:18;11.70;95.00
27803;DHT22;15182;48.174;11.562;2024-02-23T03:14:46;11.60;95.00
27803;DHT22;15182;48.174;11.562;2024-02-23T03:17:14;11.60;95.00
27803;DHT22;15182;48.174;11.562;2024-02-23T03:19:42;11.60;95.50
27803;DHT22;15182;48.174;11.562;2024-02-23T03:22:10;11.60;95.20
27803;DHT22;15182;48.174;11.562;2024-02-23T03:24:40;11.60;95.20
27803;DHT22;15182;48.174;11.562;2024-02-23T03:27:07;11.60;95.20
27803;DHT22;15182;48.174;11.562;2024-02-23T03:29:35;11.60;95.50
27803;DHT22;15182;48.174;11.562;2024-02-23T03:32:05;11.60;95.00
27803;DHT22;15182;48.174;11.562;2024-02-23T03:34:33;11.60;94.90
27803;DHT22;15182;48.174;11.562;2024-02-23T03:37:03;11.50;94.90
27803;DHT22;15182;48.174;11.562;2024-02-23T03:39:31;11.50;94.80
27803;DHT22;15182;48.174;11.562;2024-02-23T03:42:00;11.50;94.80
27803;DHT22;15182;48.174;11.562;2024-02-23T03:44:28;11.50;94.90
27803;DHT22;15182;48.174;11.562;2024-02-23T03:46:56;11.50;95.30
27803;DHT22;15182;48.174;11.562;2024-02-23T03:49:23;11.50;95.00
27803;DHT22;15182;48.174;11.562;2024-02-23T03:51:51;11.50;94.90
27803;DHT22;15182;48.174;11.562;2024-02-23T03:54:19;11.50;94.90
27803;DHT22;15182;48.174;11.562;2024-02-23T03:56:47;11.50;95.00
27803;DHT22;15182;48.174;11.562;2024-02-23T03:59:16;11.40;95.00
27803;DHT22;15182;48.174;11.562;2024-02-23T04:01:44;11.40;95.00
27803;DHT22;15182;48.174;11.562;2024-02-23T04:04:12;11.40;95.10
27803;DHT22;15182;48.174;11.562;2024-02-23T04:06:39;11.40;95.10
27803;DHT22;15182;48.174;11.562;2024-02-23T04:09:07;11.30;95.20
27803;DHT22;15182;48.174;11.562;2024-02-23T04:11:35;11.30;95.20
27803;DHT22;15182;48.174;11.562;2024-02-23T04:14:03;11.30;95.30
27803;DHT22;15182;48.174;11.562;2024-02-23T04:16:33;11.30;95.40
27803;DHT22;15182;48.174;11.562;2024-02-23T04:19:01;11.30;95.50
27803;DHT22;15182;48.174;11.562;2024-02-23T04:21:29;11.30;95.50
27803;DHT22;15182;48.174;11.562;2024-02-23T04:23:57;11.30;95.50
27803;DHT22;15182;48.174;11.562;2024-02-23T04:26:25;11.40;95.60
27803;DHT22;15182;48.174;11.562;2024-02-23T04:28:52;11.40;95.90
27803;DHT22;15182;48.174;11.562;2024-02-23T04:31:20;11.40;95.60
27803;DHT22;15182;48.174;11.562;2024-02-23T04:33:49;11.40;95.60
27803;DHT22;15182;48.174;11.562;2024-02-23T04:36:19;11.40;95.70
27803;DHT22;15182;48.174;11.562;2024-02-23T04:38:48;11.40;95.60
27803;DHT22;15182;48.174;11.562;2024-02-23T04:41:19;11.40;95.50
27803;DHT22;15182;48.174;11.562;2024-02-23T04:43:48;11.40;95.50
27803;DHT22;15182;48.174;11.562;2024-02-23T04:46:16;11.40;95.50
27803;DHT22;15182;48.174;11.562;2024-02-23T04:48:44;11.40;95.30
27803;DHT22;15182;48.174;11.562;2024-02-23T04:51:13;11.40;95.20
27803;DHT22;15182;48.174;11.562;2024-02-23T04:53:41;11.40;95.10
27803;DHT22;15182;48.174;11.562;2024-02-23T04:56:09;11.30;95.10
27803;DHT22;15182;48.174;11.562;2024-02-23T04:58:37;11.30;95.20
27803;DHT22;15182;48.174;11.562;2024-02-23T05:01:05;11.30;95.10
27803;DHT22;15182;48.174;11.562;2024-02-23T05:03:33;11.20;95.10
27803;DHT22;15182;48.174;11.562;2024-02-23T05:06:01;11.20;95.20
27803;DHT22;15182;48.174;11.562;2024-02-23T05:08:30;11.10;95.20
27803;DHT22;15182;48.174;11.562;2024-02-23T05:10:58;11.10;95.60
27803;DHT22;15182;48.174;11.562;2024-02-23T05:13:26;11.00;95.30
27803;DHT22;15182;48.174;11.562;2024-02-23T05:15:55;11.00;95.30
27803;DHT22;15182;48.174;11.562;2024-02-23T05:18:24;11.00;95.70
27803;DHT22;15182;48.174;11.562;2024-02-23T05:20:52;11.00;95.30
27803;DHT22;15182;48.174;11.562;2024-02-23T05:23:20;10.90;95.40
27803;DHT22;15182;48.174;11.562;2024-02-23T05:25:49;10.90;95.40
27803;DHT22;15182;48.174;11.562;2024-02-23T05:28:17;10.90;95.50
27803;DHT22;15182;48.174;11.562;2024-02-23T05:30:45;10.90;95.60
27803;DHT22;15182;48.174;11.562;2024-02-23T05:33:12;10.90;95.60
27803;DHT22;15182;48.174;11.562;2024-02-23T05:35:40;10.90;95.70
27803;DHT22;15182;48.174;11.562;2024-02-23T05:38:08;10.90;95.80
27803;DHT22;15182;48.174;11.562;2024-02-23T05:40:36;10.90;95.80
27803;DHT22;15182;48.174;11.562;2024-02-23T05:43:05;10.90;95.70
27803;DHT22;15182;48.174;11.562;2024-02-23T05:45:33;10.90;95.70
27803;DHT22;15182;48.174;11.562;2024-02-23T05:48:01;10.90;95.70
27803;DHT22;15182;48.174;11.562;2024-02-23T05:50:28;10.90;95.70
27803;DHT22;15182;48.174;11.562;2024-02-23T05:52:58;10.90;95.70
27803;DHT22;15182;48.174;11.562;2024-02-23T05:55:26;10.90;95.80
27803;DHT22;15182;48.174;11.562;2024-02-23T05:57:53;10.90;95.80
27803;DHT22;15182;48.174;11.562;2024-02-23T06:00:23;10.90;95.80
27803;DHT22;15182;48.174;11.562;2024-02-23T06:02:51;11.00;95.90
27803;DHT22;15182;48.174;11.562;2024-02-23T06:05:19;11.00;95.90
27803;DHT22;15182;48.174;11.562;2024-02-23T06:07:47;11.00;95.80
27803;DHT22;15182;48.174;11.562;2024-02-23T06:10:14;11.10;95.80
27803;DHT22;15182;48.174;11.562;2024-02-23T06:12:42;11.10;95.80
27803;DHT22;15182;48.174;11.562;2024-02-23T06:15:10;11.10;95.80
27803;DHT22;15182;48.174;11.562;2024-02-23T06:17:40;11.10;95.80
27803;DHT22;15182;48.174;11.562;2024-02-23T06:20:09;11.10;95.80
27803;DHT22;15182;48.174;11.562;2024-02-23T06:22:37;11.10;95.70
27803;DHT22;15182;48.174;11.562;2024-02-23T06:25:05;11.10;95.70
27803;DHT22;15182;48.174;11.562;2024-02-23T06:27:33;11.10;95.70
27803;DHT22;15182;48.174;11.562;2024-02-23T06:30:01;11.10;95.70
27803;DHT22;15182;48.174;11.562;2024-02-23T06:32:29;11.10;95.60
27803;DHT22;15182;48.174;11.562;2024-02-23T06:34:58;11.10;95.50
27803;DHT22;15182;48.174;11.562;2024-02-23T06:37:26;11.10;95.40
27803;DHT22;15182;48.174;11.562;2024-02-23T06:39:54;11.10;95.70
27803;DHT22;15182;48.174;11.562;2024-02-23T06:42:22;11.10;95.60
27803;DHT22;15182;48.174;11.562;2024-02-23T06:44:50;11.10;95.20
27803;DHT22;15182;48.174;11.562;2024-02-23T06:47:17;11.00;95.20
27803;DHT22;15182;48.174;11.562;2024-02-23T06:49:46;11.00;95.10
27803;DHT22;15182;48.174;11.562;2024-02-23T06:52:16;11.00;95.00
27803;DHT22;15182;48.174;11.562;2024-02-23T06:54:44;11.00;95.00
27803;DHT22;15182;48.174;11.562;2024-02-23T06:57:12;11.00;95.30
27803;DHT22;15182;48.174;11.562;2024-02-23T06:59:40;11.00;94.90
27803;DHT22;15182;48.174;11.562;2024-02-23T07:02:08;11.00;94.80
27803;DHT22;15182;48.174;11.562;2024-02-23T07:04:36;11.00;94.80
27803;DHT22;15182;48.174;11.562;2024-02-23T07:07:04;11.00;95.20
27803;DHT22;15182;48.174;11.562;2024-02-23T07:09:35;11.00;94.90
27803;DHT22;15182;48.174;11.562;2024-02-23T07:12:03;11.00;94.90
27803;DHT22;15182;48.174;11.562;2024-02-23T07:14:32;11.00;94.90
27803;DHT22;15182;48.174;11.562;2024-02-23T07:16:59;11.00;94.80
27803;DHT22;15182;48.174;11.562;2024-02-23T07:19:27;11.00;95.10
27803;DHT22;15182;48.174;11.562;2024-02-23T07:21:55;11.00;94.60
27803;DHT22;15182;48.174;11.562;2024-02-23T07:24:23;11.00;94.60
27803;DHT22;15182;48.174;11.562;2024-02-23T07:26:52;11.00;94.50
27803;DHT22;15182;48.174;11.562;2024-02-23T07:29:20;11.00;94.40
27803;DHT22;15182;48.174;11.562;2024-02-23T07:31:48;11.00;94.40
27803;DHT22;15182;48.174;11.562;2024-02-23T07:34:16;11.00;94.30
27803;DHT22;15182;48.174;11.562;2024-02-23T07:36:44;11.00;94.30
27803;DHT22;15182;48.174;11.562;2024-02-23T07:39:12;11.00;94.30
27803;DHT22;15182;48.174;11.562;2024-02-23T07:41:40;11.00;94.30
27803;DHT22;15182;48.174;11.562;2024-02-23T07:44:09;11.00;94.20
27803;DHT22;15182;48.174;11.562;2024-02-23T07:46:38;11.00;94.20
27803;DHT22;15182;48.174;11.562;2024-02-23T07:49:05;11.00;94.20
27803;DHT22;15182;48.174;11.562;2024-02-23T07:51:33;11.00;94.10
27803;DHT22;15182;48.174;11.562;2024-02-23T07:54:01;11.00;94.10
27803;DHT22;15182;48.174;11.562;2024-02-23T07:56:29;11.00;94.10
27803;DHT22;15182;48.174;11.562;2024-02-23T07:58:57;11.00;94.10
27803;DHT22;15182;48.174;11.562;2024-02-23T08:01:26;11.00;94.10
27803;DHT22;15182;48.174;11.562;2024-02-23T08:03:55;11.10;94.00
27803;DHT22;15182;48.174;11.562;2024-02-23T08:06:23;11.10;94.10
27803;DHT22;15182;48.174;11.562;2024-02-23T08:08:50;11.10;94.00
27803;DHT22;15182;48.174;11.562;2024-02-23T08:11:19;11.20;93.90
27803;DHT22;15182;48.174;11.562;2024-02-23T08:13:47;11.20;94.20
27803;DHT22;15182;48.174;11.562;2024-02-23T08:16:16;11.20;94.00
27803;DHT22;15182;48.174;11.562;2024-02-23T08:18:45;11.30;93.70
27803;DHT22;15182;48.174;11.562;2024-02-23T08:21:13;11.20;93.90
27803;DHT22;15182;48.174;11.562;2024-02-23T08:23:41;11.30;93.50
27803;DHT22;15182;48.174;11.562;2024-02-23T08:26:09;11.30;93.40
27803;DHT22;15182;48.174;11.562;2024-02-23T08:28:37;11.30;93.30
27803;DHT22;15182;48.174;11.562;2024-02-23T08:31:05;11.30;93.70
27803;DHT22;15182;48.174;11.562;2024-02-23T08:33:32;11.40;93.10
27803;DHT22;15182;48.174;11.562;2024-02-23T08:36:01;11.30;93.00
27803;DHT22;15182;48.174;11.562;2024-02-23T08:38:32;11.40;92.90
27803;DHT22;15182;48.174;11.562;2024-02-23T08:41:00;11.40;92.80
27803;DHT22;15182;48.174;11.562;2024-02-23T08:43:27;11.40;92.90
27803;DHT22;15182;48.174;11.562;2024-02-23T08:45:55;11.40;92.80
27803;DHT22;15182;48.174;11.562;2024-02-23T08:48:23;11.50;92.90
27803;DHT22;15182;48.174;11.562;2024-02-23T08:50:51;11.50;92.90
27803;DHT22;15182;48.174;11.562;2024-02-23T08:53:20;11.50;92.80
27803;DHT22;15182;48.174;11.562;2024-02-23T08:55:48;11.50;92.70
27803;DHT22;15182;48.174;11.562;2024-02-23T08:58:16;11.50;92.70
27803;DHT22;15182;48.174;11.562;2024-02-23T09:00:43;11.40;92.60
27803;DHT22;15182;48.174;11.562;2024-02-23T09:03:11;11.40;92.60
27803;DHT22;15182;48.174;11.562;2024-02-23T09:05:40;11.40;92.60
27803;DHT22;15182;48.174;11.562;2024-02-23T09:08:08;11.40;92.50
27803;DHT22;15182;48.174;11.562;2024-02-23T09:10:37;11.40;92.50
27803;DHT22;15182;48.174;11.562;2024-02-23T09:13:05;11.40;92.50
27803;DHT22;15182;48.174;11.562;2024-02-23T09:15:33;11.40;92.50
27803;DHT22;15182;48.174;11.562;2024-02-23T09:18:01;11.30;92.50
27803;DHT22;15182;48.174;11.562;2024-02-23T09:20:28;11.30;92.70
27803;DHT22;15182;48.174;11.562;2024-02-23T09:22:56;11.30;92.40
27803;DHT22;15182;48.174;11.562;2024-02-23T09:25:24;11.30;92.40
27803;DHT22;15182;48.174;11.562;2024-02-23T09:27:56;11.20;92.40
27803;DHT22;15182;48.174;11.562;2024-02-23T09:30:24;11.20;92.40
27803;DHT22;15182;48.174;11.562;2024-02-23T09:32:52;11.20;92.50
27803;DHT22;15182;48.174;11.562;2024-02-23T09:35:20;11.20;92.50
27803;DHT22;15182;48.174;11.562;2024-02-23T09:37:48;11.20;92.50
27803;DHT22;15182;48.174;11.562;2024-02-23T09:40:16;11.10;92.50
27803;DHT22;15182;48.174;11.562;2024-02-23T09:42:52;11.10;92.40
27803;DHT22;15182;48.174;11.562;2024-02-23T09:45:25;11.20;92.30
27803;DHT22;15182;48.174;11.562;2024-02-23T09:47:54;11.10;92.40
27803;DHT22;15182;48.174;11.562;2024-02-23T09:50:24;11.10;92.40
27803;DHT22;15182;48.174;11.562;2024-02-23T09:52:52;11.10;92.30
27803;DHT22;15182;48.174;11.562;2024-02-23T09:55:21;11.20;92.40
27803;DHT22;15182;48.174;11.562;2024-02-23T09:57:52;11.20;92.30
27803;DHT22;15182;48.174;11.562;2024-02-23T10:00:26;11.20;92.30
27803;DHT22;15182;48.174;11.562;2024-02-23T10:02:55;11.20;92.30
27803;DHT22;15182;48.174;11.562;2024-02-23T10:05:23;11.20;92.30
27803;DHT22;15182;48.174;11.562;2024-02-23T10:07:57;11.20;92.30
27803;DHT22;15182;48.174;11.562;2024-02-23T10:10:29;11.20;92.30
27803;DHT22;15182;48.174;11.562;2024-02-23T10:12:59;11.30;92.20
27803;DHT22;15182;48.174;11.562;2024-02-23T10:15:29;11.30;92.30
27803;DHT22;15182;48.174;11.562;2024-02-23T10:17:57;11.30;92.20
27803;DHT22;15182;48.174;11.562;2024-02-23T10:20:25;11.30;92.20
27803;DHT22;15182;48.174;11.562;2024-02-23T10:22:53;11.40;92.20
27803;DHT22;15182;48.174;11.562;2024-02-23T10:25:21;11.40;92.30
27803;DHT22;15182;48.174;11.562;2024-02-23T10:27:49;11.40;92.20
27803;DHT22;15182;48.174;11.562;2024-02-23T10:30:18;11.40;92.00
27803;DHT22;15182;48.174;11.562;2024-02-23T10:32:46;11.40;92.10
27803;DHT22;15182;48.174;11.562;2024-02-23T10:35:16;11.50;91.60
27803;DHT22;15182;48.174;11.562;2024-02-23T10:37:44;11.50;91.40
27803;DHT22;15182;48.174;11.562;2024-02-23T10:40:12;11.50;91.40
27803;DHT22;15182;48.174;11.562;2024-02-23T10:42:41;11.50;91.40
27803;DHT22;15182;48.174;11.562;2024-02-23T10:45:15;11.50;91.20
27803;DHT22;15182;48.174;11.562;2024-02-23T10:47:45;11.60;91.00
27803;DHT22;15182;48.174;11.562;2024-02-23T10:50:14;11.60;91.00
27803;DHT22;15182;48.174;11.562;2024-02-23T10:52:42;11.60;91.20
27803;DHT22;15182;48.174;11.562;2024-02-23T10:55:10;11.60;91.20
27803;DHT22;15182;48.174;11.562;2024-02-23T10:57:38;11.60;91.00
27803;DHT22;15182;48.174;11.562;2024-02-23T11:00:08;11.70;90.90
27803;DHT22;15182;48.174;11.562;2024-02-23T11:02:38;11.60;90.80
27803;DHT22;15182;48.174;11.562;2024-02-23T11:05:11;11.70;90.90
27803;DHT22;15182;48.174;11.562;2024-02-23T11:07:39;11.70;90.90
27803;DHT22;15182;48.174;11.562;2024-02-23T11:10:08;11.70;91.10
27803;DHT22;15182;48.174;11.562;2024-02-23T11:12:36;11.70;91.00
27803;DHT22;15182;48.174;11.562;2024-02-23T11:15:04;11.70;90.70
27803;DHT22;15182;48.174;11.562;2024-02-23T11:17:35;11.70;90.60
27803;DHT22;15182;48.174;11.562;2024-02-23T11:20:06;11.70;90.80
27803;DHT22;15182;48.174;11.562;2024-02-23T11:22:36;11.70;90.50
27803;DHT22;15182;48.174;11.562;2024-02-23T11:25:05;11.70;90.70
27803;DHT22;15182;48.174;11.562;2024-02-23T11:27:34;11.60;90.70
27803;DHT22;15182;48.174;11.562;2024-02-23T11:30:04;11.70;90.80
27803;DHT22;15182;48.174;11.562;2024-02-23T11:32:38;11.60;90.60
27803;DHT22;15182;48.174;11.562;2024-02-23T11:35:08;11.60;90.50
27803;DHT22;15182;48.174;11.562;2024-02-23T11:37:47;11.60;90.60
27803;DHT22;15182;48.174;11.562;2024-02-23T11:40:16;11.60;90.40
27803;DHT22;15182;48.174;11.562;2024-02-23T11:42:44;11.60;90.50
27803;DHT22;15182;48.174;11.562;2024-02-23T11:45:12;11.60;90.60
27803;DHT22;15182;48.174;11.562;2024-02-23T11:47:40;11.60;90.60
27803;DHT22;15182;48.174;11.562;2024-02-23T11:50:09;11.60;90.50
27803;DHT22;15182;48.174;11.562;2024-02-23T11:52:37;11.60;90.40
27803;DHT22;15182;48.174;11.562;2024-02-23T11:55:07;11.60;90.50
27803;DHT22;15182;48.174;11.562;2024-02-23T11:57:36;11.60;90.40
27803;DHT22;15182;48.174;11.562;2024-02-23T12:00:05;11.60;90.40
27803;DHT22;15182;48.174;11.562;2024-02-23T12:02:35;11.60;90.40
27803;DHT22;15182;48.174;11.562;2024-02-23T12:05:03;11.60;90.40
27803;DHT22;15182;48.174;11.562;2024-02-23T12:07:32;11.60;90.30
27803;DHT22;15182;48.174;11.562;2024-02-23T12:10:01;11.60;90.20
27803;DHT22;15182;48.174;11.562;2024-02-23T12:12:31;11.60;90.20
27803;DHT22;15182;48.174;11.562;2024-02-23T12:14:59;11.50;90.10
27803;DHT22;15182;48.174;11.562;2024-02-23T12:17:27;11.50;90.20
27803;DHT22;15182;48.174;11.562;2024-02-23T12:19:58;11.50;90.10
27803;DHT22;15182;48.174;11.562;2024-02-23T12:22:26;11.50;89.80
27803;DHT22;15182;48.174;11.562;2024-02-23T12:24:57;11.40;89.90
27803;DHT22;15182;48.174;11.562;2024-02-23T12:27:26;11.40;89.50
27803;DHT22;15182;48.174;11.562;2024-02-23T12:29:56;11.30;89.60
27803;DHT22;15182;48.174;11.562;2024-02-23T12:32:25;11.30;89.70
27803;DHT22;15182;48.174;11.562;2024-02-23T12:34:53;11.30;90.00
27803;DHT22;15182;48.174;11.562;2024-02-23T12:37:21;11.30;89.90
27803;DHT22;15182;48.174;11.562;2024-02-23T12:39:49;11.20;89.70
27803;DHT22;15182;48.174;11.562;2024-02-23T12:42:18;11.30;89.60
27803;DHT22;15182;48.174;11.562;2024-02-23T12:44:46;11.20;89.70
27803;DHT22;15182;48.174;11.562;2024-02-23T12:47:16;11.20;90.20
27803;DHT22;15182;48.174;11.562;2024-02-23T12:49:43;11.20;89.60
27803;DHT22;15182;48.174;11.562;2024-02-23T12:52:12;11.20;90.20
27803;DHT22;15182;48.174;11.562;2024-02-23T12:54:40;11.10;89.60
27803;DHT22;15182;48.174;11.562;2024-02-23T12:57:08;11.10;89.40
27803;DHT22;15182;48.174;11.562;2024-02-23T12:59:36;11.10;89.30
27803;DHT22;15182;48.174;11.562;2024-02-23T13:02:06;11.10;89.20
27803;DHT22;15182;48.174;11.562;2024-02-23T13:04:36;11.10;89.70
27803;DHT22;15182;48.174;11.562;2024-02-23T13:07:04;11.10;89.10
27803;DHT22;15182;48.174;11.562;2024-02-23T13:09:32;11.00;89.00
27803;DHT22;15182;48.174;11.562;2024-02-23T13:12:00;11.10;89.20
27803;DHT22;15182;48.174;11.562;2024-02-23T13:14:28;11.10;89.20
27803;DHT22;15182;48.174;11.562;2024-02-23T13:16:55;11.10;89.00
27803;DHT22;15182;48.174;11.562;2024-02-23T13:19:23;11.10;88.70
27803;DHT22;15182;48.174;11.562;2024-02-23T13:21:52;11.10;88.60
27803;DHT22;15182;48.174;11.562;2024-02-23T13:24:20;11.10;88.30
27803;DHT22;15182;48.174;11.562;2024-02-23T13:26:48;11.10;88.40
27803;DHT22;15182;48.174;11.562;2024-02-23T13:29:16;11.10;88.00
27803;DHT22;15182;48.174;11.562;2024-02-23T13:31:44;11.10;87.90
27803;DHT22;15182;48.174;11.562;2024-02-23T13:34:11;11.10;88.80
27803;DHT22;15182;48.174;11.562;2024-02-23T13:36:42;11.10;87.90
27803;DHT22;15182;48.174;11.562;2024-02-23T13:39:11;11.10;87.80
27803;DHT22;15182;48.174;11.562;2024-02-23T13:41:39;11.00;87.30
27803;DHT22;15182;48.174;11.562;2024-02-23T13:44:07;11.00;87.30
27803;DHT22;15182;48.174;11.562;2024-02-23T13:46:36;11.00;87.20
27803;DHT22;15182;48.174;11.562;2024-02-23T13:49:06;11.00;87.10
27803;DHT22;15182;48.174;11.562;2024-02-23T13:51:35;10.90;87.10
27803;DHT22;15182;48.174;11.562;2024-02-23T13:54:03;10.90;87.30
27803;DHT22;15182;48.174;11.562;2024-02-23T13:56:33;10.90;87.30
27803;DHT22;15182;48.174;11.562;2024-02-23T13:59:00;10.90;87.20
27803;DHT22;15182;48.174;11.562;2024-02-23T14:01:28;10.90;87.40
27803;DHT22;15182;48.174;11.562;2024-02-23T14:03:56;10.80;87.40
27803;DHT22;15182;48.174;11.562;2024-02-23T14:06:24;10.80;87.30
27803;DHT22;15182;48.174;11.562;2024-02-23T14:08:52;10.80;87.30
27803;DHT22;15182;48.174;11.562;2024-02-23T14:11:19;10.80;87.20
27803;DHT22;15182;48.174;11.562;2024-02-23T14:13:49;10.80;87.20
27803;DHT22;15182;48.174;11.562;2024-02-23T14:16:16;10.80;87.10
27803;DHT22;15182;48.174;11.562;2024-02-23T14:18:44;10.70;87.00
27803;DHT22;15182;48.174;11.562;2024-02-23T14:21:12;10.70;88.00
27803;DHT22;15182;48.174;11.562;2024-02-23T14:23:41;10.70;87.30
27803;DHT22;15182;48.174;11.562;2024-02-23T14:26:09;10.70;87.20
27803;DHT22;15182;48.174;11.562;2024-02-23T14:28:37;10.70;87.30
27803;DHT22;15182;48.174;11.562;2024-02-23T14:31:06;10.70;88.10
27803;DHT22;15182;48.174;11.562;2024-02-23T14:33:34;10.70;87.10
27803;DHT22;15182;48.174;11.562;2024-02-23T14:36:02;10.70;87.20
27803;DHT22;15182;48.174;11.562;2024-02-23T14:38:30;10.70;87.30
27803;DHT22;15182;48.174;11.562;2024-02-23T14:40:58;10.70;87.30
27803;DHT22;15182;48.174;11.562;2024-02-23T14:43:25;10.70;87.20
27803;DHT22;15182;48.174;11.562;2024-02-23T14:45:53;10.70;88.00
27803;DHT22;15182;48.174;11.562;2024-02-23T14:48:22;10.60;87.20
27803;DHT22;15182;48.174;11.562;2024-02-23T14:50:51;10.60;87.00
27803;DHT22;15182;48.174;11.562;2024-02-23T14:53:19;10.60;87.10
27803;DHT22;15182;48.174;11.562;2024-02-23T14:55:47;10.60;87.20
27803;DHT22;15182;48.174;11.562;2024-02-23T14:58:15;10.60;87.20
27803;DHT22;15182;48.174;11.562;2024-02-23T15:00:42;10.50;87.20
27803;DHT22;15182;48.174;11.562;2024-02-23T15:03:10;10.50;87.30
27803;DHT22;15182;48.174;11.562;2024-02-23T15:05:39;10.50;87.80
27803;DHT22;15182;48.174;11.562;2024-02-23T15:08:07;10.50;88.60
27803;DHT22;15182;48.174;11.562;2024-02-23T15:10:35;10.50;87.80
27803;DHT22;15182;48.174;11.562;2024-02-23T15:13:03;10.40;88.70
27803;DHT22;15182;48.174;11.562;2024-02-23T15:15:31;10.40;88.10
27803;DHT22;15182;48.174;11.562;2024-02-23T15:17:59;10.40;88.20
27803;DHT22;15182;48.174;11.562;2024-02-23T15:20:27;10.40;88.20
27803;DHT22;15182;48.174;11.562;2024-02-23T15:22:56;10.40;88.20